Des Moines International Airport
KDSM : now visible

Airfield :











YOU CAN JOIN US ON...

 
LOGIN :

Register | Disclaimer

   EN    FR    IT 

 









Legend :    VFR   Marginal VFR   IFR   Intensive IFR   Very Intensive IFR
Visi :
Ceiling :
>= 8 km
>= 3000ft
5 to 8 km
1000 to 3000 ft
1500m to 5 km
500 to 1000 ft
800 to 1500m
200 to 500 ft
< 800m
< 200 ft
Symbols :   Thunderstorms  Fog  Heavy snow  Heavy precipitations  Wind > 20 kt







- Airport Elevation : 958 ft
- IATA code : DSM


KDSM - Des Moines International

CURRENT METAR :
  • 190854Z 02005KT 10SM FEW033 SCT043 21/19 A2995 RMK AO2 SLP133 T02110189 53007

EXPIRED METARs :
  • 190754Z 36004KT 10SM FEW031 SCT045 21/19 A2994 RMK AO2 SLP129 T02110189
  • 190654Z 00000KT 10SM BKN043 22/19 A2993 RMK AO2 SLP125 T02220189

TAF KDSM
Valid from the 19 at 06:00 until the 20 at 06:00 UTC


190520Z 1906/2006 VRB03KT P6SM SCT050 BKN080
FM191600 11006KT P6SM FEW040
No reported NOTAMs for that airfield.



MET'MAP, your aeronautical weather chart ! - Copyright ORBIFLY December 2007 - Disclaimer

ORBIFLY MET'MAP TEAM :

Programming & Development : Alexandra Zaïnal
Concept & Development : Baudouin d'Aumeries
Co-Development & Prog : Marc-Olivier Méhu
Technical & hardware support : Manuel Goepfert

Contact : metmap@orbifly.com




SOURCES & CREDITS :

   NOAA       Earth
Advisory